Flight Track Log - Related Links

Times and Time Zones

All times are in EDT time to prevent confusion due to time zone crossing. See the N7191N flight status page for this flight to view local times or setup timezone preferences in your user account.

Time Position Orientation Groundspeed Altitude Reporting Facility
EDT Latitude Longitude Course Direction KTS MPH feet Rate Location/Type
Tue 06:03:39 PM 42.4467 -76.5139 261° West 162 186 4,900  Level New York Center
Tue 06:04:39 PM 42.4392 -76.5808 261° West 174 200 6,100 1,150 Climbing New York Center
Tue 06:05:39 PM 42.4339 -76.6450 264° West 174 200 7,200 1,149 Climbing New York Center
Tue 06:07:47 PM 42.4158 -76.7956 261° West 186 214 9,700 1,168 Climbing Cleveland Center
Tue 06:08:49 PM 42.4033 -76.8614 256° West 182 209 10,900 1,161 Climbing Cleveland Center
Tue 06:09:51 PM 42.3897 -76.9283 255° West 183 211 12,100 1,161 Climbing Cleveland Center
Tue 06:10:53 PM 42.3775 -76.9967 256° West 186 214 13,300 1,161 Climbing Cleveland Center
Tue 06:11:55 PM 42.3650 -77.0625 256° West 183 211 14,500 1,306 Climbing Cleveland Center
Tue 06:12:57 PM 42.3506 -77.1444 257° West 186 214 16,000 1,355 Climbing Cleveland Center
Tue 06:13:59 PM 42.3383 -77.2103 256° West 180 207 17,300 1,065 Climbing Cleveland Center
Tue 06:15:01 PM 42.3253 -77.2778 255° West 186 214 18,200 968 Climbing Cleveland Center
Tue 06:16:03 PM 42.3122 -77.3464 256° West 188 216 19,300 968 Climbing Cleveland Center
Tue 06:17:05 PM 42.2986 -77.4169 255° West 193 222 20,200 871 Climbing Cleveland Center
Tue 06:18:07 PM 42.2850 -77.4894 256° West 198 228 21,100 871 Climbing Cleveland Center
Tue 06:19:09 PM 42.2717 -77.5614 256° West 198 228 22,000 871 Climbing Cleveland Center
Tue 06:20:11 PM 42.2547 -77.6469 255° West 196 226 22,900 774 Climbing Cleveland Center
Tue 06:21:13 PM 42.2414 -77.7189 256° West 197 227 23,600 528 Climbing Cleveland Center
Tue 06:22:16 PM 42.2275 -77.7917 256° West 200 230 24,000 192 Climbing Cleveland Center
Tue 06:23:18 PM 42.2108 -77.8717 254° West 217 250 24,000  Level Cleveland Center
Tue 06:24:20 PM 42.1950 -77.9556 256° West 228 262 24,000  Level Cleveland Center
Tue 06:25:22 PM 42.1783 -78.0417 255° West 236 272 24,000  Level Cleveland Center
Tue 06:26:24 PM 42.1578 -78.1472 255° West 243 280 24,000  Level Cleveland Center
Tue 06:27:26 PM 42.1400 -78.2353 255° West 241 277 24,000  Level Cleveland Center
Tue 06:28:28 PM 42.1236 -78.3203 255° West 240 276 24,000  Level Cleveland Center
Tue 06:29:30 PM 42.1064 -78.4019 254° West 233 268 24,000  Level Cleveland Center
Tue 06:30:32 PM 42.0900 -78.4833 255° West 228 262 24,000  Level Cleveland Center
Tue 06:31:34 PM 42.0694 -78.5850 255° West 235 270 24,000  Level Cleveland Center
Tue 06:32:36 PM 42.0533 -78.6703 256° West 238 274 24,000  Level Cleveland Center
Tue 06:33:38 PM 42.0353 -78.7542 254° West 238 274 24,000  Level Cleveland Center
Tue 06:34:40 PM 42.0183 -78.8372 255° West 235 270 24,000  Level Cleveland Center
Tue 06:35:42 PM 42.0014 -78.9228 255° West 239 275 24,000  Level Cleveland Center
Tue 06:36:44 PM 41.9814 -79.0211 255° West 229 264 24,000 48 Level Cleveland Center
Tue 06:37:47 PM 41.9639 -79.1044 254° West 235 270 24,100  Climbing Cleveland Center
Tue 06:38:49 PM 41.9472 -79.1861 255° West 230 265 24,000 -48 Descending Cleveland Center
Tue 06:39:51 PM 41.9303 -79.2661 254° West 226 260 24,000  Level Cleveland Center
Tue 06:40:53 PM 41.9122 -79.3464 253° West 226 260 24,000  Level Cleveland Center
Tue 06:41:55 PM 41.8925 -79.4417 254° West 225 259 24,000  Level Cleveland Center
Tue 06:42:57 PM 41.8764 -79.5214 255° West 224 258 24,000  Level Cleveland Center
Tue 06:43:59 PM 41.8594 -79.6014 254° West 225 259 24,000  Level Cleveland Center
Tue 06:45:01 PM 41.8408 -79.6881 254° West 232 267 24,000  Level Cleveland Center
Tue 06:46:03 PM 41.8225 -79.7703 253° West 230 265 24,000  Level Cleveland Center
Tue 06:47:05 PM 41.8050 -79.8531 254° West 229 264 24,000  Level Cleveland Center
Tue 06:48:07 PM 41.7867 -79.9372 254° West 233 268 24,000  Level Cleveland Center
Tue 06:49:09 PM 41.7669 -80.0333 255° West 230 265 24,000 -96 Level Cleveland Center
Tue 06:50:12 PM 41.7492 -80.1167 254° West 232 267 23,800 -624 Descending Cleveland Center
Tue 06:51:14 PM 41.7292 -80.2075 254° West 252 290 22,700 -1,016 Descending Cleveland Center
Tue 06:52:16 PM 41.7094 -80.3014 254° West 258 297 21,700 -1,113 Descending Cleveland Center
Tue 06:53:18 PM 41.6886 -80.3931 253° West 258 297 20,400 -1,500 Descending Cleveland Center
Tue 06:54:20 PM 41.6697 -80.4819 254° West 250 288 18,600 -1,790 Descending Cleveland Center
Tue 06:55:22 PM 41.6481 -80.5725 252° West 250 288 16,700 -1,984 Descending Cleveland Center
Tue 06:56:24 PM 41.6253 -80.6775 254° West 251 289 14,500 -1,645 Descending Cleveland Center
Tue 06:57:26 PM 41.6069 -80.7611 254° West 238 274 13,300 -968 Descending Cleveland Center
Tue 06:58:28 PM 41.5875 -80.8467 253° West 237 273 12,500 -919 Descending Cleveland Center
Tue 06:59:30 PM 41.5675 -80.9333 253° West 240 276 11,400 -1,167 Descending Cleveland Center
Tue 06:59:40 PM 41.5625 -80.9561 254° West 246 283 11,100 -1,543 Descending Cleveland Center
Tue 07:00:05 PM 41.5556 -80.9886 254° West 246 283 10,500 -1,385 Descending Cleveland Center
Tue 07:00:32 PM 41.5486 -81.0189 253° West 239 275 9,900 -1,273 Descending Cleveland Center
Tue 07:01:11 PM 41.5375 -81.0781 256° West 232 267 9,100 -774 Descending Cleveland Center
Tue 07:01:34 PM 41.5322 -81.1019 254° West 233 268 9,100  Level Cleveland Center
Tue 07:02:12 PM 41.5583 -81.1536 304° West 228 262 9,100  Level Cleveland Center
Tue 07:02:37 PM 41.5667 -81.1756 297° West 228 262 9,100  Level Cleveland Center
Tue 07:03:13 PM 41.5914 -81.2314 301° West 224 258 9,100  Level Cleveland Center
Tue 07:03:39 PM 41.6014 -81.2597 295° West 223 257 9,100  Level Cleveland Center
Tue 07:04:19 PM 41.6206 -81.3086 298° West 221 254 9,100  Level Cleveland Center
Tue 07:04:41 PM 41.6297 -81.3339 296° West 221 254 9,100  Level Cleveland Center
Tue 07:05:26 PM 41.6342 -81.3919 276° West 220 253 9,100  Level Cleveland Center
Tue 07:05:43 PM 41.6314 -81.4136 260° West 219 252 9,100 -295 Level Cleveland Center
Tue 07:06:27 PM 41.6306 -81.4781 269° West 211 243 8,800 -581 Descending Cleveland Center
Tue 07:06:45 PM 41.6275 -81.4914 253° West 211 243 8,500 -1,429 Descending Cleveland Center
Tue 07:07:09 PM 41.6153 -81.5317 248° West 230 265 7,800 -1,355 Descending Cleveland Center
Tue 07:07:47 PM 41.5956 -81.5633 230° Southwest 223 257 7,100 -1,475 Descending Cleveland Center
Tue 07:08:10 PM 41.5761 -81.5953 231° Southwest 218 251 6,300 -1,548 Descending Cleveland Center
Tue 07:08:49 PM 41.5539 -81.6247 225° Southwest 221 254 5,500 -1,624 Descending Cleveland Center
Tue 07:09:35 PM 41.5222 -81.6817 233° Southwest 219 252 4,000 -1,742 Descending Cleveland Center
Tue 07:09:51 PM 41.5100 -81.6967 223° Southwest 217 250 3,700 -818 Descending Cleveland Center
Tue 07:10:41 PM 41.4856 -81.7372 231° Southwest 159 183 3,100 -677 Descending Cleveland Center
Tue 07:10:53 PM 41.4808 -81.7411 212° Southwest 177 204 3,000 -811 Descending Cleveland Center
Tue 07:11:18 PM 41.4708 -81.7600 235° Southwest 135 155 2,600 -677 Descending Cleveland Center
Tue 07:11:55 PM 41.4572 -81.7792 227° Southwest 149 171 2,300 -545 Descending Cleveland Center
Tue 07:12:13 PM 41.4511 -81.7931 240° Southwest 122 140 2,100 -581 Descending Cleveland Center
Tue 07:12:57 PM 41.4350 -81.8142 224° Southwest 131 151 1,700 -643 Descending Cleveland Center
Tue 07:13:37 PM 41.4214 -81.8411 236° Southwest 117 135 1,200 -677 Descending Cleveland Center
Tue 07:13:59 PM 41.4150 -81.8458 209° Southwest 119 137 1,000 -545 Descending Cleveland Center
Tue 07:15:00 PM 41.4000 -81.8500 252° West  Level FlightAware Approximate
Tue 07:22:00 PM 41.4094 -81.8547 252° West  Level Estimated

Login

Don't have an account? Register now (free) for customized features, flight alerts, and more!